sensor_id;sensor_type;location;lat;lon;timestamp;temperature;humidity
10419;DHT22;5256;48.728;9.140;2023-08-07T00:00:17;10.50;99.90
10419;DHT22;5256;48.728;9.140;2023-08-07T00:02:43;10.50;99.90
10419;DHT22;5256;48.728;9.140;2023-08-07T00:05:08;10.50;99.90
10419;DHT22;5256;48.728;9.140;2023-08-07T00:07:34;10.50;99.90
10419;DHT22;5256;48.728;9.140;2023-08-07T00:09:59;10.50;99.90
10419;DHT22;5256;48.728;9.140;2023-08-07T00:12:26;10.40;99.90
10419;DHT22;5256;48.728;9.140;2023-08-07T00:14:53;10.40;99.90
10419;DHT22;5256;48.728;9.140;2023-08-07T00:17:18;10.40;99.90
10419;DHT22;5256;48.728;9.140;2023-08-07T00:19:44;10.40;99.90
10419;DHT22;5256;48.728;9.140;2023-08-07T00:22:09;10.40;99.90
10419;DHT22;5256;48.728;9.140;2023-08-07T00:24:35;10.40;99.90
10419;DHT22;5256;48.728;9.140;2023-08-07T00:27:01;10.50;99.90
10419;DHT22;5256;48.728;9.140;2023-08-07T00:29:26;10.50;99.90
10419;DHT22;5256;48.728;9.140;2023-08-07T00:31:52;10.50;99.90
10419;DHT22;5256;48.728;9.140;2023-08-07T00:34:17;10.60;99.90
10419;DHT22;5256;48.728;9.140;2023-08-07T00:36:43;10.60;99.90
10419;DHT22;5256;48.728;9.140;2023-08-07T00:39:08;10.60;99.90
10419;DHT22;5256;48.728;9.140;2023-08-07T00:41:34;10.70;99.90
10419;DHT22;5256;48.728;9.140;2023-08-07T00:44:00;10.70;99.90
10419;DHT22;5256;48.728;9.140;2023-08-07T00:46:27;10.70;99.90
10419;DHT22;5256;48.728;9.140;2023-08-07T00:48:53;10.60;99.90
10419;DHT22;5256;48.728;9.140;2023-08-07T00:51:19;10.60;99.90
10419;DHT22;5256;48.728;9.140;2023-08-07T00:53:45;10.60;99.90
10419;DHT22;5256;48.728;9.140;2023-08-07T00:56:12;10.60;99.90
10419;DHT22;5256;48.728;9.140;2023-08-07T00:58:38;10.60;99.90
10419;DHT22;5256;48.728;9.140;2023-08-07T01:01:05;10.60;99.90
10419;DHT22;5256;48.728;9.140;2023-08-07T01:03:30;10.60;99.90
10419;DHT22;5256;48.728;9.140;2023-08-07T01:05:56;10.60;99.90
10419;DHT22;5256;48.728;9.140;2023-08-07T01:08:22;10.60;99.90
10419;DHT22;5256;48.728;9.140;2023-08-07T01:11:14;10.60;99.90
10419;DHT22;5256;48.728;9.140;2023-08-07T01:16:50;10.70;99.90
10419;DHT22;5256;48.728;9.140;2023-08-07T01:19:23;10.70;99.90
10419;DHT22;5256;48.728;9.140;2023-08-07T01:22:14;10.70;99.90
10419;DHT22;5256;48.728;9.140;2023-08-07T01:24:44;10.80;99.90
10419;DHT22;5256;48.728;9.140;2023-08-07T01:30:09;10.80;99.90
10419;DHT22;5256;48.728;9.140;2023-08-07T01:33:22;10.80;99.90
10419;DHT22;5256;48.728;9.140;2023-08-07T01:36:01;10.80;99.90
10419;DHT22;5256;48.728;9.140;2023-08-07T01:38:28;10.80;99.90
10419;DHT22;5256;48.728;9.140;2023-08-07T01:40:53;10.80;99.90
10419;DHT22;5256;48.728;9.140;2023-08-07T01:43:19;10.80;99.90
10419;DHT22;5256;48.728;9.140;2023-08-07T01:45:45;10.90;99.90
10419;DHT22;5256;48.728;9.140;2023-08-07T01:48:11;10.90;99.90
10419;DHT22;5256;48.728;9.140;2023-08-07T01:50:38;10.80;99.90
10419;DHT22;5256;48.728;9.140;2023-08-07T01:53:04;10.90;99.90
10419;DHT22;5256;48.728;9.140;2023-08-07T01:55:30;10.80;99.90
10419;DHT22;5256;48.728;9.140;2023-08-07T01:57:55;10.80;99.90
10419;DHT22;5256;48.728;9.140;2023-08-07T02:00:21;10.80;99.90
10419;DHT22;5256;48.728;9.140;2023-08-07T02:02:47;10.80;99.90
10419;DHT22;5256;48.728;9.140;2023-08-07T02:05:12;10.80;99.90
10419;DHT22;5256;48.728;9.140;2023-08-07T02:07:38;10.80;99.90
10419;DHT22;5256;48.728;9.140;2023-08-07T02:10:04;10.80;99.90
10419;DHT22;5256;48.728;9.140;2023-08-07T02:12:30;10.90;99.90
10419;DHT22;5256;48.728;9.140;2023-08-07T02:14:58;10.90;99.90
10419;DHT22;5256;48.728;9.140;2023-08-07T02:17:25;10.90;99.90
10419;DHT22;5256;48.728;9.140;2023-08-07T02:19:50;10.90;99.90
10419;DHT22;5256;48.728;9.140;2023-08-07T02:22:16;11.00;99.90
10419;DHT22;5256;48.728;9.140;2023-08-07T02:24:42;11.00;99.90
10419;DHT22;5256;48.728;9.140;2023-08-07T02:27:08;11.00;99.90
10419;DHT22;5256;48.728;9.140;2023-08-07T02:29:34;11.00;99.90
10419;DHT22;5256;48.728;9.140;2023-08-07T02:32:02;11.00;99.90
10419;DHT22;5256;48.728;9.140;2023-08-07T02:34:32;11.00;99.90
10419;DHT22;5256;48.728;9.140;2023-08-07T02:36:58;10.90;99.90
10419;DHT22;5256;48.728;9.140;2023-08-07T02:39:25;10.90;99.90
10419;DHT22;5256;48.728;9.140;2023-08-07T02:41:50;10.90;99.90
10419;DHT22;5256;48.728;9.140;2023-08-07T02:44:16;11.00;99.90
10419;DHT22;5256;48.728;9.140;2023-08-07T02:46:43;11.00;99.90
10419;DHT22;5256;48.728;9.140;2023-08-07T02:49:08;11.00;99.90
10419;DHT22;5256;48.728;9.140;2023-08-07T02:51:34;10.90;99.90
10419;DHT22;5256;48.728;9.140;2023-08-07T02:53:59;11.00;99.90
10419;DHT22;5256;48.728;9.140;2023-08-07T02:56:25;10.90;99.90
10419;DHT22;5256;48.728;9.140;2023-08-07T02:58:50;10.90;99.90
10419;DHT22;5256;48.728;9.140;2023-08-07T03:01:16;10.90;99.90
10419;DHT22;5256;48.728;9.140;2023-08-07T03:03:41;10.90;99.90
10419;DHT22;5256;48.728;9.140;2023-08-07T03:06:07;10.80;99.90
10419;DHT22;5256;48.728;9.140;2023-08-07T03:08:33;10.80;99.90
10419;DHT22;5256;48.728;9.140;2023-08-07T03:10:58;10.70;99.90
10419;DHT22;5256;48.728;9.140;2023-08-07T03:13:25;10.60;99.90
10419;DHT22;5256;48.728;9.140;2023-08-07T03:16:04;10.60;99.90
10419;DHT22;5256;48.728;9.140;2023-08-07T03:18:30;10.50;99.90
10419;DHT22;5256;48.728;9.140;2023-08-07T03:20:57;10.40;99.90
10419;DHT22;5256;48.728;9.140;2023-08-07T03:23:23;10.40;99.90
10419;DHT22;5256;48.728;9.140;2023-08-07T03:25:49;10.40;99.90
10419;DHT22;5256;48.728;9.140;2023-08-07T03:28:15;10.30;99.90
10419;DHT22;5256;48.728;9.140;2023-08-07T03:30:40;10.30;99.90
10419;DHT22;5256;48.728;9.140;2023-08-07T03:33:06;10.30;99.90
10419;DHT22;5256;48.728;9.140;2023-08-07T03:35:32;10.30;99.90
10419;DHT22;5256;48.728;9.140;2023-08-07T03:37:58;10.30;99.90
10419;DHT22;5256;48.728;9.140;2023-08-07T03:40:23;10.30;99.90
10419;DHT22;5256;48.728;9.140;2023-08-07T03:42:48;10.30;99.90
10419;DHT22;5256;48.728;9.140;2023-08-07T03:45:14;10.40;99.90
10419;DHT22;5256;48.728;9.140;2023-08-07T03:47:40;10.40;99.90
10419;DHT22;5256;48.728;9.140;2023-08-07T03:50:06;10.40;99.90
10419;DHT22;5256;48.728;9.140;2023-08-07T03:52:31;10.40;99.90
10419;DHT22;5256;48.728;9.140;2023-08-07T03:54:57;10.40;99.90
10419;DHT22;5256;48.728;9.140;2023-08-07T03:57:22;10.40;99.90
10419;DHT22;5256;48.728;9.140;2023-08-07T03:59:48;10.40;99.90
10419;DHT22;5256;48.728;9.140;2023-08-07T04:02:13;10.40;99.90
10419;DHT22;5256;48.728;9.140;2023-08-07T04:04:39;10.40;99.90
10419;DHT22;5256;48.728;9.140;2023-08-07T04:07:04;10.40;99.90
10419;DHT22;5256;48.728;9.140;2023-08-07T04:09:31;10.30;99.90
10419;DHT22;5256;48.728;9.140;2023-08-07T04:11:57;10.30;99.90
10419;DHT22;5256;48.728;9.140;2023-08-07T04:14:23;10.30;99.90
10419;DHT22;5256;48.728;9.140;2023-08-07T04:16:49;10.30;99.90
10419;DHT22;5256;48.728;9.140;2023-08-07T04:19:14;10.30;99.90
10419;DHT22;5256;48.728;9.140;2023-08-07T04:21:40;10.20;99.90
10419;DHT22;5256;48.728;9.140;2023-08-07T04:24:05;10.20;99.90
10419;DHT22;5256;48.728;9.140;2023-08-07T04:26:36;10.20;99.90
10419;DHT22;5256;48.728;9.140;2023-08-07T04:29:02;10.20;99.90
10419;DHT22;5256;48.728;9.140;2023-08-07T04:31:28;10.20;99.90
10419;DHT22;5256;48.728;9.140;2023-08-07T04:33:53;10.30;99.90
10419;DHT22;5256;48.728;9.140;2023-08-07T04:36:19;10.30;99.90
10419;DHT22;5256;48.728;9.140;2023-08-07T04:38:46;10.30;99.90
10419;DHT22;5256;48.728;9.140;2023-08-07T04:41:11;10.30;99.90
10419;DHT22;5256;48.728;9.140;2023-08-07T04:43:37;10.30;99.90
10419;DHT22;5256;48.728;9.140;2023-08-07T04:46:02;10.40;99.90
10419;DHT22;5256;48.728;9.140;2023-08-07T04:48:28;10.40;99.90
10419;DHT22;5256;48.728;9.140;2023-08-07T04:50:53;10.50;99.90
10419;DHT22;5256;48.728;9.140;2023-08-07T04:53:19;10.60;99.90
10419;DHT22;5256;48.728;9.140;2023-08-07T04:55:45;10.60;99.90
10419;DHT22;5256;48.728;9.140;2023-08-07T04:58:11;10.60;99.90
10419;DHT22;5256;48.728;9.140;2023-08-07T05:00:37;10.60;99.90
10419;DHT22;5256;48.728;9.140;2023-08-07T05:03:02;10.60;99.90
10419;DHT22;5256;48.728;9.140;2023-08-07T05:05:28;10.70;99.90
10419;DHT22;5256;48.728;9.140;2023-08-07T05:07:55;10.70;99.90
10419;DHT22;5256;48.728;9.140;2023-08-07T05:10:20;10.70;99.90
10419;DHT22;5256;48.728;9.140;2023-08-07T05:12:46;10.80;99.90
10419;DHT22;5256;48.728;9.140;2023-08-07T05:15:11;10.80;99.90
10419;DHT22;5256;48.728;9.140;2023-08-07T05:17:37;10.90;99.90
10419;DHT22;5256;48.728;9.140;2023-08-07T05:20:02;10.90;99.90
10419;DHT22;5256;48.728;9.140;2023-08-07T05:22:28;11.00;99.90
10419;DHT22;5256;48.728;9.140;2023-08-07T05:24:54;11.00;99.90
10419;DHT22;5256;48.728;9.140;2023-08-07T05:27:20;11.10;99.90
10419;DHT22;5256;48.728;9.140;2023-08-07T05:29:45;11.20;99.90
10419;DHT22;5256;48.728;9.140;2023-08-07T05:32:12;11.20;99.90
10419;DHT22;5256;48.728;9.140;2023-08-07T05:34:38;11.30;99.90
10419;DHT22;5256;48.728;9.140;2023-08-07T05:37:04;11.40;99.90
10419;DHT22;5256;48.728;9.140;2023-08-07T05:39:29;11.40;99.90
10419;DHT22;5256;48.728;9.140;2023-08-07T05:41:55;11.50;99.90
10419;DHT22;5256;48.728;9.140;2023-08-07T05:44:26;11.60;99.90
10419;DHT22;5256;48.728;9.140;2023-08-07T05:46:52;11.60;99.90
10419;DHT22;5256;48.728;9.140;2023-08-07T05:49:18;11.60;99.90
10419;DHT22;5256;48.728;9.140;2023-08-07T05:51:44;11.70;99.90
10419;DHT22;5256;48.728;9.140;2023-08-07T05:54:09;11.70;99.90
10419;DHT22;5256;48.728;9.140;2023-08-07T05:56:37;11.80;99.90
10419;DHT22;5256;48.728;9.140;2023-08-07T05:59:02;11.90;99.90
10419;DHT22;5256;48.728;9.140;2023-08-07T06:01:28;12.00;99.90
10419;DHT22;5256;48.728;9.140;2023-08-07T06:03:59;12.10;99.90
10419;DHT22;5256;48.728;9.140;2023-08-07T06:06:25;12.20;99.90
10419;DHT22;5256;48.728;9.140;2023-08-07T06:08:56;12.10;99.90
10419;DHT22;5256;48.728;9.140;2023-08-07T06:11:22;12.10;99.90
10419;DHT22;5256;48.728;9.140;2023-08-07T06:13:48;12.10;99.90
10419;DHT22;5256;48.728;9.140;2023-08-07T06:16:14;12.10;99.90
10419;DHT22;5256;48.728;9.140;2023-08-07T06:18:39;12.20;99.90
10419;DHT22;5256;48.728;9.140;2023-08-07T06:21:05;12.20;99.90
10419;DHT22;5256;48.728;9.140;2023-08-07T06:23:35;12.30;99.90
10419;DHT22;5256;48.728;9.140;2023-08-07T06:26:01;12.30;99.90
10419;DHT22;5256;48.728;9.140;2023-08-07T06:28:30;12.30;99.90
10419;DHT22;5256;48.728;9.140;2023-08-07T06:31:03;12.30;99.90
10419;DHT22;5256;48.728;9.140;2023-08-07T06:33:29;12.30;99.90
10419;DHT22;5256;48.728;9.140;2023-08-07T06:35:54;12.40;99.90
10419;DHT22;5256;48.728;9.140;2023-08-07T06:38:20;12.40;99.90
10419;DHT22;5256;48.728;9.140;2023-08-07T06:40:45;12.30;99.90
10419;DHT22;5256;48.728;9.140;2023-08-07T06:43:11;12.40;99.90
10419;DHT22;5256;48.728;9.140;2023-08-07T06:45:36;12.50;99.90
10419;DHT22;5256;48.728;9.140;2023-08-07T06:48:02;12.50;99.90
10419;DHT22;5256;48.728;9.140;2023-08-07T06:50:28;12.60;99.90
10419;DHT22;5256;48.728;9.140;2023-08-07T06:52:53;12.70;99.90
10419;DHT22;5256;48.728;9.140;2023-08-07T06:55:19;12.80;99.90
10419;DHT22;5256;48.728;9.140;2023-08-07T06:57:45;12.90;99.90
10419;DHT22;5256;48.728;9.140;2023-08-07T07:00:11;13.00;99.90
10419;DHT22;5256;48.728;9.140;2023-08-07T07:02:36;13.00;99.90
10419;DHT22;5256;48.728;9.140;2023-08-07T07:05:02;13.00;99.90
10419;DHT22;5256;48.728;9.140;2023-08-07T07:07:30;13.10;99.90
10419;DHT22;5256;48.728;9.140;2023-08-07T07:09:55;13.10;99.90
10419;DHT22;5256;48.728;9.140;2023-08-07T07:12:23;13.20;99.90
10419;DHT22;5256;48.728;9.140;2023-08-07T07:14:49;13.30;99.90
10419;DHT22;5256;48.728;9.140;2023-08-07T07:17:14;13.40;99.90
10419;DHT22;5256;48.728;9.140;2023-08-07T07:19:40;13.30;99.90
10419;DHT22;5256;48.728;9.140;2023-08-07T07:22:05;13.30;99.90
10419;DHT22;5256;48.728;9.140;2023-08-07T07:24:31;13.40;99.90
10419;DHT22;5256;48.728;9.140;2023-08-07T07:26:56;13.40;99.90
10419;DHT22;5256;48.728;9.140;2023-08-07T07:29:22;13.40;99.90
10419;DHT22;5256;48.728;9.140;2023-08-07T07:31:50;13.40;99.90
10419;DHT22;5256;48.728;9.140;2023-08-07T07:34:15;13.40;99.90
10419;DHT22;5256;48.728;9.140;2023-08-07T07:36:41;13.20;99.90
10419;DHT22;5256;48.728;9.140;2023-08-07T07:39:07;13.50;99.90
10419;DHT22;5256;48.728;9.140;2023-08-07T07:41:32;14.20;99.90
10419;DHT22;5256;48.728;9.140;2023-08-07T07:43:58;15.00;99.90
10419;DHT22;5256;48.728;9.140;2023-08-07T07:46:23;15.60;99.90
10419;DHT22;5256;48.728;9.140;2023-08-07T07:48:49;16.00;99.90
10419;DHT22;5256;48.728;9.140;2023-08-07T07:51:15;15.80;99.90
10419;DHT22;5256;48.728;9.140;2023-08-07T07:53:41;15.30;99.90
10419;DHT22;5256;48.728;9.140;2023-08-07T07:56:06;15.20;99.90
10419;DHT22;5256;48.728;9.140;2023-08-07T07:58:32;15.00;99.90
10419;DHT22;5256;48.728;9.140;2023-08-07T08:00:57;14.90;99.90
10419;DHT22;5256;48.728;9.140;2023-08-07T08:03:23;15.10;99.90
10419;DHT22;5256;48.728;9.140;2023-08-07T08:05:52;15.30;99.90
10419;DHT22;5256;48.728;9.140;2023-08-07T08:08:18;15.20;99.90
10419;DHT22;5256;48.728;9.140;2023-08-07T08:10:45;15.20;99.90
10419;DHT22;5256;48.728;9.140;2023-08-07T08:13:13;15.00;99.90
10419;DHT22;5256;48.728;9.140;2023-08-07T08:15:39;14.80;99.90
10419;DHT22;5256;48.728;9.140;2023-08-07T08:18:04;14.70;99.90
10419;DHT22;5256;48.728;9.140;2023-08-07T08:20:30;14.60;99.90
10419;DHT22;5256;48.728;9.140;2023-08-07T08:22:57;14.40;99.90
10419;DHT22;5256;48.728;9.140;2023-08-07T08:25:22;14.50;99.90
10419;DHT22;5256;48.728;9.140;2023-08-07T08:27:48;14.50;99.90
10419;DHT22;5256;48.728;9.140;2023-08-07T08:30:16;14.70;99.90
10419;DHT22;5256;48.728;9.140;2023-08-07T08:32:42;14.90;99.90
10419;DHT22;5256;48.728;9.140;2023-08-07T08:35:08;15.00;99.90
10419;DHT22;5256;48.728;9.140;2023-08-07T08:37:34;15.30;99.90
10419;DHT22;5256;48.728;9.140;2023-08-07T08:39:59;15.60;99.90
10419;DHT22;5256;48.728;9.140;2023-08-07T08:42:25;15.80;99.90
10419;DHT22;5256;48.728;9.140;2023-08-07T08:44:53;16.50;99.90
10419;DHT22;5256;48.728;9.140;2023-08-07T08:47:18;16.70;99.90
10419;DHT22;5256;48.728;9.140;2023-08-07T08:50:04;16.80;99.90
10419;DHT22;5256;48.728;9.140;2023-08-07T08:52:32;16.80;99.90
10419;DHT22;5256;48.728;9.140;2023-08-07T08:55:01;16.80;99.90
10419;DHT22;5256;48.728;9.140;2023-08-07T08:57:26;16.90;99.90
10419;DHT22;5256;48.728;9.140;2023-08-07T08:59:52;17.20;99.90
10419;DHT22;5256;48.728;9.140;2023-08-07T09:02:18;17.30;99.90
10419;DHT22;5256;48.728;9.140;2023-08-07T09:04:46;17.60;99.90
10419;DHT22;5256;48.728;9.140;2023-08-07T09:07:14;17.60;99.90
10419;DHT22;5256;48.728;9.140;2023-08-07T09:09:40;17.30;99.90
10419;DHT22;5256;48.728;9.140;2023-08-07T09:12:08;17.20;99.90
10419;DHT22;5256;48.728;9.140;2023-08-07T09:14:37;17.20;99.90
10419;DHT22;5256;48.728;9.140;2023-08-07T09:17:05;16.90;99.90
10419;DHT22;5256;48.728;9.140;2023-08-07T09:19:31;16.70;99.90
10419;DHT22;5256;48.728;9.140;2023-08-07T09:21:56;16.70;99.90
10419;DHT22;5256;48.728;9.140;2023-08-07T09:24:22;16.90;99.90
10419;DHT22;5256;48.728;9.140;2023-08-07T09:26:48;17.20;99.90
10419;DHT22;5256;48.728;9.140;2023-08-07T09:29:15;17.40;99.90
10419;DHT22;5256;48.728;9.140;2023-08-07T09:31:43;17.40;99.90
10419;DHT22;5256;48.728;9.140;2023-08-07T09:34:12;17.30;99.90
10419;DHT22;5256;48.728;9.140;2023-08-07T09:36:40;17.20;99.90
10419;DHT22;5256;48.728;9.140;2023-08-07T09:39:06;17.30;99.90
10419;DHT22;5256;48.728;9.140;2023-08-07T09:41:31;17.40;99.90
10419;DHT22;5256;48.728;9.140;2023-08-07T09:43:57;17.60;99.90
10419;DHT22;5256;48.728;9.140;2023-08-07T09:46:25;17.60;99.90
10419;DHT22;5256;48.728;9.140;2023-08-07T09:48:51;17.90;99.90
10419;DHT22;5256;48.728;9.140;2023-08-07T09:51:16;17.80;99.90
10419;DHT22;5256;48.728;9.140;2023-08-07T09:53:42;17.50;99.90
10419;DHT22;5256;48.728;9.140;2023-08-07T09:56:07;17.20;99.90
10419;DHT22;5256;48.728;9.140;2023-08-07T09:58:34;17.00;99.90
10419;DHT22;5256;48.728;9.140;2023-08-07T10:01:02;16.80;99.90
10419;DHT22;5256;48.728;9.140;2023-08-07T10:03:28;17.10;99.90
10419;DHT22;5256;48.728;9.140;2023-08-07T10:05:54;17.20;99.90
10419;DHT22;5256;48.728;9.140;2023-08-07T10:08:21;16.80;99.90
10419;DHT22;5256;48.728;9.140;2023-08-07T10:10:47;16.70;99.90
10419;DHT22;5256;48.728;9.140;2023-08-07T10:13:14;16.90;99.90
10419;DHT22;5256;48.728;9.140;2023-08-07T10:15:43;17.00;99.90
10419;DHT22;5256;48.728;9.140;2023-08-07T10:18:09;17.10;99.90
10419;DHT22;5256;48.728;9.140;2023-08-07T10:20:36;17.10;99.90
10419;DHT22;5256;48.728;9.140;2023-08-07T10:23:09;17.30;99.90
10419;DHT22;5256;48.728;9.140;2023-08-07T10:25:39;17.50;99.90
10419;DHT22;5256;48.728;9.140;2023-08-07T10:28:09;17.30;99.90
10419;DHT22;5256;48.728;9.140;2023-08-07T10:30:38;17.00;99.90
10419;DHT22;5256;48.728;9.140;2023-08-07T10:33:04;16.80;99.90
10419;DHT22;5256;48.728;9.140;2023-08-07T10:35:33;17.00;99.90
10419;DHT22;5256;48.728;9.140;2023-08-07T10:38:09;17.20;99.90
10419;DHT22;5256;48.728;9.140;2023-08-07T10:41:01;17.50;99.90
10419;DHT22;5256;48.728;9.140;2023-08-07T10:43:27;17.70;99.90
10419;DHT22;5256;48.728;9.140;2023-08-07T10:45:59;17.40;99.90
10419;DHT22;5256;48.728;9.140;2023-08-07T10:48:28;17.40;99.90
10419;DHT22;5256;48.728;9.140;2023-08-07T10:53:40;17.40;99.90
10419;DHT22;5256;48.728;9.140;2023-08-07T10:56:30;17.20;99.90
10419;DHT22;5256;48.728;9.140;2023-08-07T10:58:56;17.10;99.90
10419;DHT22;5256;48.728;9.140;2023-08-07T11:01:40;16.90;99.90
10419;DHT22;5256;48.728;9.140;2023-08-07T11:04:11;16.80;99.90
10419;DHT22;5256;48.728;9.140;2023-08-07T11:06:38;16.90;99.90
10419;DHT22;5256;48.728;9.140;2023-08-07T11:09:06;17.30;99.90
10419;DHT22;5256;48.728;9.140;2023-08-07T11:11:43;17.50;99.90
10419;DHT22;5256;48.728;9.140;2023-08-07T11:14:13;17.90;99.90
10419;DHT22;5256;48.728;9.140;2023-08-07T11:16:39;18.20;99.90
10419;DHT22;5256;48.728;9.140;2023-08-07T11:19:05;18.10;99.90
10419;DHT22;5256;48.728;9.140;2023-08-07T11:21:32;17.70;99.90
10419;DHT22;5256;48.728;9.140;2023-08-07T11:23:58;17.40;99.90
10419;DHT22;5256;48.728;9.140;2023-08-07T11:26:24;17.10;99.90
10419;DHT22;5256;48.728;9.140;2023-08-07T11:28:56;17.20;99.90
10419;DHT22;5256;48.728;9.140;2023-08-07T11:31:23;17.00;99.90
10419;DHT22;5256;48.728;9.140;2023-08-07T11:33:54;16.70;99.90
10419;DHT22;5256;48.728;9.140;2023-08-07T11:36:21;16.50;99.90
10419;DHT22;5256;48.728;9.140;2023-08-07T11:38:47;16.50;99.90
10419;DHT22;5256;48.728;9.140;2023-08-07T11:41:15;16.30;99.90
10419;DHT22;5256;48.728;9.140;2023-08-07T11:43:42;16.20;99.90
10419;DHT22;5256;48.728;9.140;2023-08-07T11:46:13;15.90;99.90
10419;DHT22;5256;48.728;9.140;2023-08-07T11:48:41;15.70;99.90
10419;DHT22;5256;48.728;9.140;2023-08-07T11:51:07;15.60;99.90
10419;DHT22;5256;48.728;9.140;2023-08-07T11:53:35;15.50;99.90
10419;DHT22;5256;48.728;9.140;2023-08-07T11:56:01;15.50;99.90
10419;DHT22;5256;48.728;9.140;2023-08-07T11:58:33;15.50;99.90
10419;DHT22;5256;48.728;9.140;2023-08-07T12:00:59;15.50;99.90
10419;DHT22;5256;48.728;9.140;2023-08-07T12:03:32;15.50;99.90
10419;DHT22;5256;48.728;9.140;2023-08-07T12:06:03;15.40;99.90
10419;DHT22;5256;48.728;9.140;2023-08-07T12:11:05;15.10;99.90
10419;DHT22;5256;48.728;9.140;2023-08-07T12:13:31;14.80;99.90
10419;DHT22;5256;48.728;9.140;2023-08-07T12:15:58;14.70;99.90
10419;DHT22;5256;48.728;9.140;2023-08-07T12:18:26;14.80;99.90
10419;DHT22;5256;48.728;9.140;2023-08-07T12:20:57;14.70;99.90
10419;DHT22;5256;48.728;9.140;2023-08-07T12:23:23;14.70;99.90
10419;DHT22;5256;48.728;9.140;2023-08-07T12:25:49;14.80;99.90
10419;DHT22;5256;48.728;9.140;2023-08-07T12:28:15;14.80;99.90
10419;DHT22;5256;48.728;9.140;2023-08-07T12:30:45;14.90;99.90
10419;DHT22;5256;48.728;9.140;2023-08-07T12:33:11;15.10;99.90
10419;DHT22;5256;48.728;9.140;2023-08-07T12:35:37;15.20;99.90
10419;DHT22;5256;48.728;9.140;2023-08-07T12:38:02;15.50;99.90
10419;DHT22;5256;48.728;9.140;2023-08-07T12:40:29;15.80;99.90
10419;DHT22;5256;48.728;9.140;2023-08-07T12:42:55;16.20;99.90
10419;DHT22;5256;48.728;9.140;2023-08-07T12:45:21;16.50;99.90
10419;DHT22;5256;48.728;9.140;2023-08-07T12:47:46;16.80;99.90
10419;DHT22;5256;48.728;9.140;2023-08-07T12:50:12;17.20;99.90
10419;DHT22;5256;48.728;9.140;2023-08-07T12:52:38;17.80;99.90
10419;DHT22;5256;48.728;9.140;2023-08-07T12:55:03;18.10;99.90
10419;DHT22;5256;48.728;9.140;2023-08-07T12:57:31;18.10;99.90
10419;DHT22;5256;48.728;9.140;2023-08-07T12:59:57;18.00;99.90
10419;DHT22;5256;48.728;9.140;2023-08-07T13:02:23;17.90;99.90
10419;DHT22;5256;48.728;9.140;2023-08-07T13:04:48;17.80;99.90
10419;DHT22;5256;48.728;9.140;2023-08-07T13:07:14;17.80;99.90
10419;DHT22;5256;48.728;9.140;2023-08-07T13:09:39;17.70;99.90
10419;DHT22;5256;48.728;9.140;2023-08-07T13:12:05;17.50;99.90
10419;DHT22;5256;48.728;9.140;2023-08-07T13:14:31;17.40;99.90
10419;DHT22;5256;48.728;9.140;2023-08-07T13:16:56;17.60;99.90
10419;DHT22;5256;48.728;9.140;2023-08-07T13:19:22;17.70;99.90
10419;DHT22;5256;48.728;9.140;2023-08-07T13:21:48;17.60;99.90
10419;DHT22;5256;48.728;9.140;2023-08-07T13:24:13;17.50;99.90
10419;DHT22;5256;48.728;9.140;2023-08-07T13:26:39;17.40;99.90
10419;DHT22;5256;48.728;9.140;2023-08-07T13:29:10;17.20;99.90
10419;DHT22;5256;48.728;9.140;2023-08-07T13:31:36;17.00;99.90
10419;DHT22;5256;48.728;9.140;2023-08-07T13:34:01;16.90;99.90
10419;DHT22;5256;48.728;9.140;2023-08-07T13:36:36;16.80;99.90
10419;DHT22;5256;48.728;9.140;2023-08-07T13:39:02;16.80;99.90
10419;DHT22;5256;48.728;9.140;2023-08-07T13:41:27;16.90;99.90
10419;DHT22;5256;48.728;9.140;2023-08-07T13:43:53;17.00;99.90
10419;DHT22;5256;48.728;9.140;2023-08-07T13:46:18;17.10;99.90
10419;DHT22;5256;48.728;9.140;2023-08-07T13:48:45;17.10;99.90
10419;DHT22;5256;48.728;9.140;2023-08-07T13:51:10;17.10;99.90
10419;DHT22;5256;48.728;9.140;2023-08-07T13:53:36;17.40;99.90
10419;DHT22;5256;48.728;9.140;2023-08-07T13:56:02;18.00;99.90
10419;DHT22;5256;48.728;9.140;2023-08-07T13:58:28;18.20;99.90
10419;DHT22;5256;48.728;9.140;2023-08-07T14:00:55;18.20;99.90
10419;DHT22;5256;48.728;9.140;2023-08-07T14:03:21;18.30;99.90
10419;DHT22;5256;48.728;9.140;2023-08-07T14:05:47;18.20;99.90
10419;DHT22;5256;48.728;9.140;2023-08-07T14:08:12;18.40;99.90
10419;DHT22;5256;48.728;9.140;2023-08-07T14:10:38;18.40;99.90
10419;DHT22;5256;48.728;9.140;2023-08-07T14:13:06;18.30;99.90
10419;DHT22;5256;48.728;9.140;2023-08-07T14:15:32;18.10;99.90
10419;DHT22;5256;48.728;9.140;2023-08-07T14:17:57;18.60;99.90
10419;DHT22;5256;48.728;9.140;2023-08-07T14:20:23;19.40;99.90
10419;DHT22;5256;48.728;9.140;2023-08-07T14:22:50;20.00;99.90
10419;DHT22;5256;48.728;9.140;2023-08-07T14:25:16;20.30;99.80
10419;DHT22;5256;48.728;9.140;2023-08-07T14:27:41;20.50;99.90
10419;DHT22;5256;48.728;9.140;2023-08-07T14:30:07;20.10;99.30
10419;DHT22;5256;48.728;9.140;2023-08-07T14:32:33;19.10;99.80
10419;DHT22;5256;48.728;9.140;2023-08-07T14:34:58;18.70;99.90
10419;DHT22;5256;48.728;9.140;2023-08-07T14:37:24;18.60;99.90
10419;DHT22;5256;48.728;9.140;2023-08-07T14:39:50;18.60;99.90
10419;DHT22;5256;48.728;9.140;2023-08-07T14:42:15;18.70;99.90
10419;DHT22;5256;48.728;9.140;2023-08-07T14:44:41;18.50;99.90
10419;DHT22;5256;48.728;9.140;2023-08-07T14:47:06;18.40;99.90
10419;DHT22;5256;48.728;9.140;2023-08-07T14:49:32;18.20;99.90
10419;DHT22;5256;48.728;9.140;2023-08-07T14:51:58;18.30;99.90
10419;DHT22;5256;48.728;9.140;2023-08-07T14:54:23;18.20;99.90
10419;DHT22;5256;48.728;9.140;2023-08-07T14:56:49;18.20;99.90
10419;DHT22;5256;48.728;9.140;2023-08-07T14:59:15;18.10;99.90
10419;DHT22;5256;48.728;9.140;2023-08-07T15:01:40;17.80;99.90
10419;DHT22;5256;48.728;9.140;2023-08-07T15:04:06;17.80;99.90
10419;DHT22;5256;48.728;9.140;2023-08-07T15:06:31;18.60;99.90
10419;DHT22;5256;48.728;9.140;2023-08-07T15:08:58;19.40;99.90
10419;DHT22;5256;48.728;9.140;2023-08-07T15:11:24;20.10;99.90
10419;DHT22;5256;48.728;9.140;2023-08-07T15:13:49;20.70;99.90
10419;DHT22;5256;48.728;9.140;2023-08-07T15:16:15;21.00;99.80
10419;DHT22;5256;48.728;9.140;2023-08-07T15:18:41;21.10;99.70
10419;DHT22;5256;48.728;9.140;2023-08-07T15:21:06;21.20;99.30
10419;DHT22;5256;48.728;9.140;2023-08-07T15:23:32;21.10;99.60
10419;DHT22;5256;48.728;9.140;2023-08-07T15:25:57;21.20;99.60
10419;DHT22;5256;48.728;9.140;2023-08-07T15:28:23;21.00;99.90
10419;DHT22;5256;48.728;9.140;2023-08-07T15:30:50;20.30;99.90
10419;DHT22;5256;48.728;9.140;2023-08-07T15:33:16;19.70;99.90
10419;DHT22;5256;48.728;9.140;2023-08-07T15:35:42;19.20;99.90
10419;DHT22;5256;48.728;9.140;2023-08-07T15:38:08;18.90;99.90
10419;DHT22;5256;48.728;9.140;2023-08-07T15:40:38;18.70;99.90
10419;DHT22;5256;48.728;9.140;2023-08-07T15:43:04;18.60;99.90
10419;DHT22;5256;48.728;9.140;2023-08-07T15:45:29;18.20;99.90
10419;DHT22;5256;48.728;9.140;2023-08-07T15:47:55;18.20;99.90
10419;DHT22;5256;48.728;9.140;2023-08-07T15:50:21;18.00;99.90
10419;DHT22;5256;48.728;9.140;2023-08-07T15:52:46;18.00;99.90